メインページ
METAR-TAF:

METAR-TAF

空港 :

ドバイ国際空港

ドバイ, アラブ首長国連邦

緯度: 25-15-10N, 経度: 055-21-52E, 海抜: 8m

現時点の気象観測

当レポートは17分前の09:00(UTC)に作成
北西の風 11kt
気温 37°C
湿度 50%
気圧 1000 hPa
視程: 7000m

METAR: OMDB 200900Z 32011KT 7000 NSC 37/25 Q1000 NOSIG

時間: 13:17 (09:17 UTC)

予報

当レポートは4時間16分前の05:01(UTC)に作成
予報は20日の 06時(UTC)から 21日の 12時(UTC)まで有効
南/南西の風 9kt
視程: 8000m
20日の 07時(UTC)から 20日の 09時(UTC)まで徐々に
北西の風 10kt
20日の 16時(UTC)から 20日の 18時(UTC)まで徐々に
の風 7kt
確率 30%
21日の 01時(UTC)から 21日の 04時(UTC)まで
視程: 4000m
煙霧
21日の 07時(UTC)から 21日の 09時(UTC)まで徐々に
北西の風 10kt

TAF: OMDB 200501Z 2006/2112 21009KT 8000 NSC BECMG 2007/2009 32010KT BECMG 2016/2018 18007KT PROB30 2101/2104 4000 HZ BECMG 2107/2109 32010KT

4,000以上の空港の気象観測と天気予報(METAR報とTAF報)

利用可能な観測所は地図上に黄色い丸と赤い丸で示す。

丸の上にカーソルを重ねると観測所名を参照できる。

次にクリックすると気象観測と天気予報を参照できる。

マップの切り替え:黒色「×」印の緑ボタンをクリックして拡大、「-」印の緑ボタンをクリックして縮小、緑色の三角印をクリックして隣りの地図に切り替え


METAR-TAF: